| time (UTC) | temp C | wind direction | speed KPH | gust KPH | rain 1hr cm | rain 24hr cm | rain mn cm | humidity % | barometer mb |
| 20260831170051 | 23 | 38 | 1.6 | 11.3 | 0.08 | 0.69 | 0.69 | 87 | 1015.4 |
| 20260831165527 | 23 | 80 | 3.2 | 11.3 | 0.10 | 0.69 | 0.69 | 87 | 1015.3 |
| 20260831165025 | 23 | 67 | 3.2 | 14.5 | 0.15 | 0.69 | 0.69 | 87 | 1015.5 |
| 20260831164555 | 23 | 84 | 3.2 | 17.7 | 0.18 | 0.69 | 0.69 | 87 | 1015.2 |
| 20260831164023 | 23 | 69 | 6.4 | 17.7 | 0.20 | 0.69 | 0.69 | 87 | 1015.1 |
| 20260831163524 | 23 | 72 | 8.0 | 17.7 | 0.20 | 0.66 | 0.66 | 87 | 1015.2 |
| 20260831163050 | 23 | 43 | 6.4 | 19.3 | 0.23 | 0.66 | 0.66 | 87 | 1015.2 |
| 20260831162529 | 23 | 72 | 8.0 | 19.3 | 0.20 | 0.64 | 0.64 | 87 | 1015.0 |
| 20260831162028 | 23 | 54 | 9.7 | 19.3 | 0.23 | 0.64 | 0.64 | 87 | 1014.7 |
| 20260831161555 | 23 | 23 | 8.0 | 20.9 | 0.23 | 0.61 | 0.61 | 86 | 1014.7 |
| 20260831161030 | 22 | 35 | 9.7 | 20.9 | 0.23 | 0.61 | 0.61 | 87 | 1014.8 |
| 20260831160524 | 22 | 52 | 8.0 | 17.7 | 0.25 | 0.61 | 0.61 | 89 | 1015.0 |
| 20260831160050 | 22 | 59 | 9.7 | 17.7 | 0.23 | 0.58 | 0.58 | 90 | 1014.8 |
| 20260831155527 | 22 | 49 | 6.4 | 14.5 | 0.25 | 0.58 | 0.58 | 90 | 1014.8 |
| 20260831155028 | 22 | 47 | 6.4 | 14.5 | 0.23 | 0.53 | 0.53 | 90 | 1014.9 |
| 20260831154659 | 22 | 36 | 3.2 | 8.0 | 0.23 | 0.51 | 0.51 | 90 | 1014.9 |
| 20260831154028 | 22 | 25 | 3.2 | 6.4 | 0.20 | 0.48 | 0.48 | 89 | 1015.0 |
| 20260831153528 | 22 | 5 | 0.0 | 6.4 | 0.18 | 0.46 | 0.46 | 89 | 1014.9 |
| 20260831153055 | 22 | 25 | 1.6 | 9.7 | 0.15 | 0.43 | 0.43 | 89 | 1014.8 |
| 20260831152525 | 22 | 35 | 3.2 | 9.7 | 0.15 | 0.43 | 0.43 | 89 | 1014.7 |
| 20260831152034 | 22 | 105 | 4.8 | 9.7 | 0.13 | 0.41 | 0.41 | 89 | 1014.5 |
| 20260831151550 | 22 | 108 | 1.6 | 14.5 | 0.10 | 0.38 | 0.38 | 88 | 1014.5 |
| 20260831151026 | 22 | 123 | 3.2 | 16.1 | 0.10 | 0.38 | 0.38 | 88 | 1014.4 |
| 20260831150530 | 22 | 135 | 4.8 | 19.3 | 0.08 | 0.36 | 0.36 | 88 | 1014.4 |
| 20260831150052 | 22 | 97 | 9.7 | 24.1 | 0.05 | 0.33 | 0.33 | 87 | 1014.3 |
| 20260831145528 | 22 | 107 | 11.3 | 24.1 | 0.05 | 0.33 | 0.33 | 86 | 1014.5 |
| 20260831145029 | 23 | 175 | 11.3 | 22.5 | 0.03 | 0.30 | 0.30 | 85 | 1014.5 |
| 20260831144547 | 23 | 158 | 8.0 | 16.1 | 0.00 | 0.28 | 0.28 | 84 | 1014.8 |
| 20260831144028 | 23 | 238 | 6.4 | 16.1 | 0.00 | 0.28 | 0.28 | 83 | 1014.8 |
| 20260831143526 | 23 | 211 | 6.4 | 16.1 | 0.00 | 0.28 | 0.28 | 82 | 1014.8 |
| 20260831143112 | 23 | 232 | 4.8 | 19.3 | 0.00 | 0.28 | 0.28 | 80 | 1014.6 |
| 20260831142529 | 23 | 163 | 6.4 | 22.5 | 0.00 | 0.28 | 0.28 | 79 | 1014.4 |
| 20260831142023 | 23 | 163 | 6.4 | 22.5 | 0.00 | 0.28 | 0.28 | 79 | 1014.1 |
| 20260831141610 | 23 | 142 | 9.7 | 19.3 | 0.00 | 0.28 | 0.28 | 79 | 1013.9 |
| 20260831141026 | 23 | 182 | 8.0 | 22.5 | 0.00 | 0.28 | 0.28 | 79 | 1013.6 |
| 20260831140527 | 23 | 157 | 11.3 | 27.4 | 0.00 | 0.28 | 0.28 | 79 | 1013.5 |
| 20260831140054 | 23 | 166 | 9.7 | 27.4 | 0.00 | 0.28 | 0.28 | 79 | 1013.4 |
| 20260831135527 | 23 | 120 | 9.7 | 20.9 | 0.00 | 0.28 | 0.28 | 80 | 1013.2 |
| 20260831135028 | 23 | 111 | 8.0 | 20.9 | 0.00 | 0.28 | 0.28 | 80 | 1013.0 |
| 20260831134554 | 23 | 207 | 8.0 | 24.1 | 0.00 | 0.28 | 0.28 | 80 | 1013.0 |
| 20260831134026 | 23 | 146 | 9.7 | 25.7 | 0.00 | 0.28 | 0.28 | 80 | 1012.9 |
| 20260831133526 | 24 | 141 | 6.4 | 25.7 | 0.00 | 0.28 | 0.28 | 80 | 1012.7 |
| 20260831133047 | 24 | 107 | 8.0 | 27.4 | 0.00 | 0.28 | 0.28 | 79 | 1012.6 |
| 20260831132525 | 24 | 67 | 6.4 | 30.6 | 0.00 | 0.28 | 0.28 | 78 | 1012.5 |
| 20260831132034 | 24 | 138 | 9.7 | 30.6 | 0.00 | 0.28 | 0.28 | 77 | 1012.4 |
| 20260831131552 | 24 | 102 | 12.9 | 27.4 | 0.00 | 0.28 | 0.28 | 76 | 1012.3 |
| 20260831131025 | 25 | 54 | 8.0 | 27.4 | 0.00 | 0.28 | 0.28 | 76 | 1012.2 |
| 20260831130528 | 25 | 74 | 9.7 | 25.7 | 0.00 | 0.28 | 0.28 | 75 | 1012.1 |
| 20260831130056 | 25 | 100 | 6.4 | 17.7 | 0.00 | 0.28 | 0.28 | 75 | 1012.1 |
| 20260831125528 | 25 | 81 | 4.8 | 12.9 | 0.00 | 0.28 | 0.28 | 74 | 1012.1 |
| 20260831125028 | 25 | 188 | 4.8 | 12.9 | 0.00 | 0.28 | 0.28 | 72 | 1012.1 |
| 20260831124551 | 26 | 136 | 4.8 | 11.3 | 0.00 | 0.28 | 0.28 | 71 | 1012.1 |
| 20260831124026 | 26 | 94 | 1.6 | 6.4 | 0.00 | 0.28 | 0.28 | 69 | 1012.0 |
| 20260831123526 | 26 | 104 | 1.6 | 6.4 | 0.00 | 0.28 | 0.28 | 69 | 1011.9 |
| 20260831123052 | 26 | 104 | 0.0 | 8.0 | 0.00 | 0.28 | 0.28 | 70 | 1011.7 |
| 20260831122527 | 26 | 0 | 0.0 | 8.0 | 0.00 | 0.28 | 0.28 | 69 | 1011.7 |
| 20260831122027 | 26 | 220 | 3.2 | 8.0 | 0.00 | 0.28 | 0.28 | 69 | 1011.4 |
| 20260831121548 | 26 | 247 | 1.6 | 6.4 | 0.00 | 0.28 | 0.28 | 68 | 1011.3 |
| 20260831121026 | 26 | 266 | 1.6 | 9.7 | 0.00 | 0.28 | 0.28 | 68 | 1011.2 |
| 20260831120527 | 26 | 297 | 1.6 | 9.7 | 0.00 | 0.28 | 0.28 | 67 | 1011.1 |
| 20260831120059 | 26 | 290 | 3.2 | 9.7 | 0.00 | 0.28 | 0.28 | 67 | 1011.1 |
| 20260831115528 | 26 | 278 | 1.6 | 6.4 | 0.00 | 0.28 | 0.28 | 67 | 1010.9 |
| 20260831115028 | 26 | 295 | 1.6 | 6.4 | 0.00 | 0.28 | 0.28 | 67 | 1010.8 |
| 20260831114549 | 26 | 277 | 3.2 | 8.0 | 0.00 | 0.28 | 0.28 | 68 | 1010.7 |
| 20260831114026 | 26 | 247 | 1.6 | 9.7 | 0.00 | 0.28 | 0.28 | 68 | 1010.7 |
| 20260831113525 | 26 | 231 | 3.2 | 9.7 | 0.00 | 0.28 | 0.28 | 69 | 1010.7 |
| 20260831113054 | 25 | 241 | 3.2 | 8.0 | 0.00 | 0.28 | 0.28 | 69 | 1010.5 |
| 20260831112526 | 25 | 334 | 1.6 | 9.7 | 0.00 | 0.28 | 0.28 | 69 | 1010.5 |
| 20260831112025 | 25 | 0 | 4.8 | 14.5 | 0.00 | 0.28 | 0.28 | 69 | 1010.5 |
| 20260831111549 | 25 | 163 | 3.2 | 14.5 | 0.00 | 0.28 | 0.28 | 70 | 1010.3 |
| 20260831111024 | 25 | 168 | 6.4 | 14.5 | 0.00 | 0.28 | 0.28 | 71 | 1010.2 |
| 20260831110527 | 25 | 189 | 6.4 | 14.5 | 0.00 | 0.28 | 0.28 | 73 | 1010.1 |
| 20260831110048 | 25 | 148 | 4.8 | 14.5 | 0.00 | 0.28 | 0.28 | 74 | 1010.2 |
| 20260831105524 | 25 | 178 | 6.4 | 14.5 | 0.00 | 0.28 | 0.28 | 75 | 1010.3 |
| 20260831105024 | 25 | 200 | 6.4 | 12.9 | 0.00 | 0.28 | 0.28 | 75 | 1010.3 |
| 20260831104544 | 25 | 142 | 4.8 | 12.9 | 0.00 | 0.28 | 0.28 | 76 | 1010.0 |
| 20260831104025 | 25 | 157 | 3.2 | 14.5 | 0.00 | 0.28 | 0.28 | 76 | 1009.9 |
| 20260831103525 | 25 | 159 | 6.4 | 14.5 | 0.00 | 0.28 | 0.28 | 75 | 1009.9 |
| 20260831103055 | 25 | 188 | 4.8 | 14.5 | 0.00 | 0.28 | 0.28 | 73 | 1009.9 |
| 20260831102524 | 25 | 150 | 3.2 | 9.7 | 0.00 | 0.28 | 0.28 | 72 | 1009.7 |
| 20260831102031 | 25 | 112 | 3.2 | 11.3 | 0.00 | 0.28 | 0.28 | 70 | 1009.6 |
| 20260831101612 | 25 | 102 | 3.2 | 14.5 | 0.00 | 0.28 | 0.28 | 69 | 1009.4 |
| 20260831101024 | 25 | 78 | 4.8 | 14.5 | 0.00 | 0.28 | 0.28 | 69 | 1009.3 |
| 20260831100524 | 25 | 65 | 4.8 | 9.7 | 0.00 | 0.28 | 0.28 | 70 | 1009.3 |
| 20260831100057 | 25 | 22 | 3.2 | 8.0 | 0.00 | 0.28 | 0.28 | 71 | 1009.4 |
| 20260831095527 | 25 | 58 | 1.6 | 9.7 | 0.00 | 0.28 | 0.28 | 71 | 1009.6 |
| 20260831095028 | 25 | 22 | 3.2 | 11.3 | 0.00 | 0.28 | 0.28 | 73 | 1009.6 |
| 20260831094544 | 25 | 37 | 3.2 | 12.9 | 0.00 | 0.28 | 0.28 | 74 | 1009.6 |
| 20260831094023 | 25 | 67 | 4.8 | 12.9 | 0.00 | 0.28 | 0.28 | 76 | 1009.7 |
| 20260831093525 | 25 | 108 | 4.8 | 12.9 | 0.00 | 0.28 | 0.28 | 76 | 1009.9 |
| 20260831093057 | 25 | 148 | 3.2 | 12.9 | 0.00 | 0.28 | 0.28 | 75 | 1010.0 |
| 20260831092525 | 25 | 115 | 4.8 | 12.9 | 0.00 | 0.28 | 0.28 | 74 | 1010.3 |
| 20260831092024 | 26 | 150 | 4.8 | 11.3 | 0.00 | 0.28 | 0.28 | 73 | 1010.1 |
| 20260831091549 | 26 | 98 | 3.2 | 9.7 | 0.00 | 0.28 | 0.28 | 71 | 1009.9 |
| 20260831091029 | 26 | 83 | 1.6 | 8.0 | 0.00 | 0.28 | 0.28 | 71 | 1009.8 |
| 20260831090527 | 26 | 69 | 3.2 | 11.3 | 0.00 | 0.28 | 0.28 | 71 | 1010.0 |
| 20260831090105 | 26 | 61 | 3.2 | 16.1 | 0.00 | 0.28 | 0.28 | 72 | 1010.0 |
| 20260831085525 | 25 | 13 | 4.8 | 16.1 | 0.00 | 0.28 | 0.28 | 73 | 1010.1 |
| 20260831085030 | 25 | 61 | 4.8 | 12.9 | 0.00 | 0.28 | 0.28 | 75 | 1010.4 |
| 20260831084549 | 25 | 87 | 0.0 | 8.0 | 0.03 | 0.28 | 0.28 | 78 | 1010.5 |
| 20260831084024 | 25 | 74 | 3.2 | 11.3 | 0.25 | 0.28 | 0.28 | 78 | 1010.6 |
| 20260831083527 | 25 | 0 | 0.0 | 11.3 | 0.28 | 0.28 | 0.28 | 79 | 1010.6 |
| 20260831083048 | 25 | 100 | 3.2 | 9.7 | 0.28 | 0.28 | 0.28 | 78 | 1010.8 |
| 20260831082526 | 25 | 115 | 3.2 | 9.7 | 0.28 | 0.28 | 0.28 | 77 | 1011.0 |
| 20260831082026 | 25 | 96 | 1.6 | 14.5 | 0.28 | 0.28 | 0.28 | 76 | 1011.2 |
| 20260831081551 | 25 | 84 | 4.8 | 16.1 | 0.28 | 0.28 | 0.28 | 76 | 1011.1 |
| 20260831081025 | 25 | 77 | 8.0 | 16.1 | 0.28 | 0.28 | 0.28 | 77 | 1010.9 |
| 20260831080525 | 25 | 31 | 4.8 | 20.9 | 0.28 | 0.28 | 0.28 | 78 | 1010.6 |
| 20260831080051 | 24 | 42 | 9.7 | 20.9 | 0.28 | 0.28 | 0.28 | 79 | 1010.3 |
| 20260831075525 | 24 | 76 | 1.6 | 19.3 | 0.28 | 0.28 | 0.28 | 75 | 1010.5 |
| 20260831075027 | 26 | 140 | 8.0 | 19.3 | 0.28 | 0.28 | 0.28 | 73 | 1011.1 |
| 20260831074558 | 27 | 52 | 8.0 | 16.1 | 0.20 | 0.20 | 0.20 | 70 | 1011.3 |
| 20260831074032 | 28 | 92 | 3.2 | 14.5 | 0.00 | 0.00 | 0.00 | 62 | 1011.6 |
| 20260831073531 | 28 | 314 | 3.2 | 17.7 | 0.00 | 0.00 | 0.00 | 58 | 1011.2 |
| 20260831073102 | 28 | 5 | 6.4 | 20.9 | 0.00 | 0.00 | 0.00 | 58 | 1010.5 |
| 20260831072527 | 28 | 81 | 8.0 | 20.9 | 0.00 | 0.00 | 0.00 | 58 | 1010.2 |
| 20260831072028 | 28 | 29 | 11.3 | 27.4 | 0.00 | 0.00 | 0.00 | 57 | 1010.2 |
| 20260831071551 | 29 | 34 | 9.7 | 27.4 | 0.00 | 0.00 | 0.00 | 56 | 1010.4 |
| 20260831071027 | 29 | 5 | 11.3 | 27.4 | 0.00 | 0.00 | 0.00 | 55 | 1010.5 |
| 20260831070524 | 29 | 308 | 9.7 | 19.3 | 0.00 | 0.00 | 0.00 | 54 | 1010.4 |
| 20260831070049 | 29 | 328 | 9.7 | 20.9 | 0.00 | 0.00 | 0.00 | 55 | 1010.4 |
| 20260831065527 | 28 | 26 | 8.0 | 27.4 | 0.00 | 0.00 | 0.00 | 56 | 1010.1 |
| 20260831065030 | 28 | 13 | 11.3 | 27.4 | 0.00 | 0.00 | 0.00 | 56 | 1009.9 |
| 20260831064554 | 29 | 36 | 4.8 | 20.9 | 0.00 | 0.00 | 0.00 | 55 | 1009.8 |
| 20260831064033 | 28 | 5 | 8.0 | 20.9 | 0.00 | 0.00 | 0.00 | 55 | 1010.0 |
| 20260831063527 | 29 | 55 | 8.0 | 20.9 | 0.00 | 0.00 | 0.00 | 55 | 1010.2 |
| 20260831063052 | 29 | 15 | 6.4 | 24.1 | 0.00 | 0.00 | 0.00 | 54 | 1010.1 |
| 20260831062527 | 29 | 25 | 9.7 | 24.1 | 0.00 | 0.00 | 0.00 | 54 | 1010.0 |
| 20260831062036 | 29 | 21 | 3.2 | 17.7 | 0.00 | 0.00 | 0.00 | 54 | 1009.7 |
| 20260831061600 | 29 | 327 | 8.0 | 17.7 | 0.00 | 0.00 | 0.00 | 54 | 1009.8 |
| 20260831061028 | 29 | 352 | 1.6 | 6.4 | 0.00 | 0.00 | 0.00 | 53 | 1009.7 |
| 20260831060527 | 29 | 202 | 0.0 | 16.1 | 0.00 | 0.00 | 0.00 | 53 | 1009.2 |
| 20260831060106 | 29 | 287 | 6.4 | 17.7 | 0.00 | 0.00 | 0.00 | 53 | 1009.2 |
| 20260831055524 | 29 | 296 | 8.0 | 17.7 | 0.00 | 0.00 | 0.00 | 52 | 1009.0 |
| 20260831055027 | 29 | 321 | 8.0 | 17.7 | 0.00 | 0.00 | 0.00 | 52 | 1008.7 |
| 20260831054550 | 29 | 300 | 8.0 | 17.7 | 0.00 | 0.00 | 0.00 | 53 | 1008.7 |
| 20260831054034 | 29 | 252 | 8.0 | 17.7 | 0.00 | 0.00 | 0.00 | 54 | 1008.8 |
| 20260831053527 | 29 | 226 | 9.7 | 16.1 | 0.00 | 0.00 | 0.00 | 53 | 1008.9 |
| 20260831053050 | 29 | 0 | 4.8 | 14.5 | 0.00 | 0.00 | 0.00 | 54 | 1008.9 |
| 20260831052529 | 28 | 269 | 4.8 | 12.9 | 0.00 | 0.00 | 0.00 | 57 | 1008.8 |
| 20260831052025 | 28 | 175 | 4.8 | 16.1 | 0.00 | 0.00 | 0.00 | 59 | 1008.9 |
| 20260831051604 | 28 | 218 | 8.0 | 20.9 | 0.00 | 0.00 | 0.00 | 60 | 1008.8 |
| 20260831051025 | 29 | 211 | 8.0 | 20.9 | 0.00 | 0.00 | 0.00 | 57 | 1008.9 |
| 20260831050524 | 30 | 207 | 9.7 | 22.5 | 0.00 | 0.00 | 0.00 | 56 | 1008.8 |
| 20260831050059 | 29 | 267 | 9.7 | 27.4 | 0.00 | 0.00 | 0.00 | 56 | 1008.7 |
| 20260831045529 | 29 | 260 | 12.9 | 33.8 | 0.00 | 0.00 | 0.00 | 57 | 1008.7 |
| 20260831045030 | 28 | 263 | 14.5 | 33.8 | 0.00 | 0.00 | 0.00 | 58 | 1009.0 |
| 20260831044549 | 28 | 228 | 9.7 | 29.0 | 0.00 | 0.00 | 0.00 | 61 | 1009.2 |
| 20260831044027 | 28 | 244 | 12.9 | 20.9 | 0.00 | 0.00 | 0.00 | 64 | 1009.2 |
| 20260831043527 | 28 | 244 | 8.0 | 37.0 | 0.00 | 0.00 | 0.00 | 63 | 1009.4 |
| 20260831043053 | 28 | 275 | 11.3 | 37.0 | 0.00 | 0.00 | 0.00 | 58 | 1009.5 |
| 20260831042524 | 29 | 272 | 14.5 | 37.0 | 0.00 | 0.00 | 0.00 | 55 | 1009.6 |
| 20260831042025 | 30 | 235 | 14.5 | 33.8 | 0.00 | 0.00 | 0.00 | 52 | 1009.2 |
| 20260831041559 | 31 | 242 | 14.5 | 24.1 | 0.00 | 0.00 | 0.00 | 52 | 1009.2 |
| 20260831041029 | 31 | 256 | 6.4 | 24.1 | 0.00 | 0.00 | 0.00 | 53 | 1008.8 |
| 20260831040528 | 32 | 229 | 11.3 | 24.1 | 0.00 | 0.00 | 0.00 | 49 | 1008.7 |
| 20260831040054 | 32 | 233 | 9.7 | 33.8 | 0.00 | 0.00 | 0.00 | 47 | 1008.8 |
| 20260831035524 | 32 | 230 | 11.3 | 33.8 | 0.00 | 0.00 | 0.00 | 46 | 1008.7 |
| 20260831035025 | 32 | 173 | 11.3 | 38.6 | 0.00 | 0.00 | 0.00 | 46 | 1008.6 |
| 20260831034550 | 32 | 220 | 16.1 | 38.6 | 0.00 | 0.00 | 0.00 | 46 | 1008.5 |
| 20260831034027 | 32 | 221 | 14.5 | 35.4 | 0.00 | 0.00 | 0.00 | 45 | 1008.8 |
| 20260831033527 | 33 | 217 | 12.9 | 35.4 | 0.00 | 0.00 | 0.00 | 43 | 1008.7 |
| 20260831033050 | 36 | 245 | 12.9 | 32.2 | 0.00 | 0.00 | 0.00 | 35 | 1008.6 |
| 20260831032528 | 37 | 0 | 0.0 | 4.8 | 0.00 | 0.00 | 0.00 | 33 | 1007.7 |
| 20260831032028 | 37 | 352 | 0.0 | 3.2 | 0.00 | 0.00 | 0.00 | 33 | 1007.6 |
| 20260831031554 | 37 | 352 | 0.0 | 4.8 | 0.00 | 0.00 | 0.00 | 33 | 1007.4 |
| 20260831031025 | 37 | 5 | 1.6 | 4.8 | 0.00 | 0.00 | 0.00 | 33 | 1007.2 |
| 20260831030525 | 37 | 0 | 0.0 | 4.8 | 0.00 | 0.00 | 0.00 | 33 | 1007.2 |
| 20260831030110 | 37 | 9 | 1.6 | 6.4 | 0.00 | 0.00 | 0.00 | 32 | 1007.1 |
| 20260831025525 | 37 | 31 | 1.6 | 9.7 | 0.00 | 0.00 | 0.00 | 32 | 1007.1 |
| 20260831025024 | 37 | 42 | 1.6 | 9.7 | 0.00 | 0.00 | 0.00 | 32 | 1007.0 |
| 20260831024611 | 37 | 0 | 1.6 | 6.4 | 0.00 | 0.00 | 0.00 | 32 | 1007.0 |
| 20260831024023 | 37 | 338 | 1.6 | 6.4 | 0.00 | 0.00 | 0.00 | 32 | 1006.9 |
| 20260831023525 | 37 | 0 | 0.0 | 3.2 | 0.00 | 0.00 | 0.00 | 32 | 1006.9 |
| 20260831023047 | 37 | 0 | 0.0 | 4.8 | 0.00 | 0.00 | 0.00 | 32 | 1006.8 |
| 20260831022524 | 37 | 0 | 1.6 | 4.8 | 0.00 | 0.00 | 0.00 | 32 | 1006.7 |
| 20260831022024 | 37 | 43 | 1.6 | 4.8 | 0.00 | 0.00 | 0.00 | 31 | 1006.7 |
| 20260831021554 | 37 | 348 | 0.0 | 6.4 | 0.00 | 0.00 | 0.00 | 32 | 1006.4 |
| 20260831021028 | 37 | 55 | 0.0 | 6.4 | 0.00 | 0.00 | 0.00 | 31 | 1006.3 |
| 20260831020526 | 38 | 55 | 1.6 | 6.4 | 0.00 | 0.00 | 0.00 | 31 | 1006.2 |
| 20260831020055 | 38 | 57 | 1.6 | 6.4 | 0.00 | 0.00 | 0.00 | 31 | 1006.2 |
| 20260831015528 | 38 | 346 | 1.6 | 6.4 | 0.00 | 0.00 | 0.00 | 31 | 1006.1 |
| 20260831015024 | 38 | 5 | 1.6 | 6.4 | 0.00 | 0.00 | 0.00 | 31 | 1006.2 |
| 20260831014551 | 38 | 0 | 1.6 | 6.4 | 0.00 | 0.00 | 0.00 | 31 | 1006.0 |
| 20260831014024 | 38 | 327 | 1.6 | 6.4 | 0.00 | 0.00 | 0.00 | 31 | 1005.9 |
| 20260831013525 | 38 | 0 | 1.6 | 4.8 | 0.00 | 0.00 | 0.00 | 30 | 1005.9 |
| 20260831013109 | 38 | 17 | 1.6 | 4.8 | 0.00 | 0.00 | 0.00 | 30 | 1005.9 |
| 20260831012523 | 38 | 41 | 0.0 | 4.8 | 0.00 | 0.00 | 0.00 | 30 | 1005.9 |
| 20260831012024 | 38 | 41 | 1.6 | 6.4 | 0.00 | 0.00 | 0.00 | 29 | 1005.8 |
| 20260831011549 | 38 | 321 | 0.0 | 8.0 | 0.00 | 0.00 | 0.00 | 30 | 1005.9 |
| 20260831011024 | 38 | 0 | 1.6 | 8.0 | 0.00 | 0.00 | 0.00 | 29 | 1006.0 |
| 20260831010526 | 38 | 315 | 3.2 | 12.9 | 0.00 | 0.00 | 0.00 | 29 | 1006.0 |
| 20260831010054 | 39 | 327 | 3.2 | 12.9 | 0.00 | 0.00 | 0.00 | 29 | 1006.2 |
| 20260831005524 | 39 | 331 | 4.8 | 12.9 | 0.00 | 0.00 | 0.00 | 29 | 1006.3 |
| 20260831005023 | 39 | 10 | 1.6 | 8.0 | 0.00 | 0.00 | 0.00 | 29 | 1006.2 |
| 20260831004550 | 39 | 103 | 1.6 | 8.0 | 0.00 | 0.00 | 0.00 | 29 | 1006.3 |
| 20260831004026 | 40 | 236 | 1.6 | 11.3 | 0.00 | 0.00 | 0.00 | 28 | 1006.4 |
| 20260831003526 | 40 | 0 | 3.2 | 11.3 | 0.00 | 0.00 | 0.00 | 28 | 1006.4 |
| 20260831003056 | 40 | 279 | 3.2 | 12.9 | 0.00 | 0.00 | 0.00 | 28 | 1006.4 |
| 20260831002527 | 40 | 294 | 3.2 | 12.9 | 0.00 | 0.00 | 0.00 | 28 | 1006.3 |
| 20260831002024 | 40 | 285 | 1.6 | 9.7 | 0.00 | 0.00 | 0.00 | 28 | 1006.3 |
| 20260831001549 | 40 | 232 | 4.8 | 11.3 | 0.00 | 0.00 | 0.00 | 28 | 1006.4 |
| 20260831001024 | 40 | 290 | 1.6 | 11.3 | 0.00 | 0.00 | 0.00 | 28 | 1006.3 |
| 20260831000524 | 40 | 344 | 3.2 | 11.3 | 0.00 | 0.00 | 0.00 | 28 | 1006.4 |
| 20260831000049 | 40 | 0 | 1.6 | 11.3 | 0.00 | 0.00 | 0.00 | 28 | 1006.3 |
| 20260830235527 | 40 | 5 | 3.2 | 9.7 | 0.00 | 0.00 | 0.00 | 27 | 1006.3 |
| 20260830235027 | 40 | 0 | 1.6 | 9.7 | 0.00 | 0.00 | 0.00 | 27 | 1006.4 |
| 20260830234604 | 40 | 344 | 3.2 | 9.7 | 0.00 | 0.00 | 0.00 | 27 | 1006.3 |
| 20260830234024 | 40 | 0 | 1.6 | 8.0 | 0.00 | 0.00 | 0.00 | 27 | 1006.3 |
| 20260830233524 | 40 | 0 | 1.6 | 12.9 | 0.00 | 0.00 | 0.00 | 27 | 1006.4 |
| 20260830233054 | 40 | 288 | 1.6 | 12.9 | 0.00 | 0.00 | 0.00 | 28 | 1006.6 |
| 20260830232527 | 40 | 221 | 1.6 | 12.9 | 0.00 | 0.00 | 0.00 | 28 | 1006.6 |
| 20260830232027 | 40 | 304 | 4.8 | 14.5 | 0.00 | 0.00 | 0.00 | 27 | 1006.6 |
| 20260830231549 | 40 | 311 | 3.2 | 14.5 | 0.00 | 0.00 | 0.00 | 28 | 1006.7 |
| 20260830231024 | 40 | 252 | 4.8 | 14.5 | 0.00 | 0.00 | 0.00 | 27 | 1006.8 |
| 20260830230524 | 40 | 285 | 3.2 | 12.9 | 0.00 | 0.00 | 0.00 | 28 | 1007.0 |
| 20260830230048 | 39 | 86 | 1.6 | 12.9 | 0.00 | 0.00 | 0.00 | 29 | 1007.0 |
| 20260830225525 | 40 | 311 | 4.8 | 12.9 | 0.00 | 0.00 | 0.00 | 28 | 1007.1 |
| 20260830225025 | 40 | 13 | 4.8 | 11.3 | 0.00 | 0.00 | 0.00 | 28 | 1007.3 |
| 20260830224554 | 40 | 360 | 1.6 | 8.0 | 0.00 | 0.00 | 0.00 | 28 | 1007.3 |
| 20260830224030 | 40 | 0 | 1.6 | 20.9 | 0.00 | 0.00 | 0.00 | 28 | 1007.3 |
| 20260830223524 | 40 | 302 | 3.2 | 20.9 | 0.00 | 0.00 | 0.00 | 29 | 1007.4 |
| 20260830223048 | 39 | 196 | 6.4 | 20.9 | 0.00 | 0.00 | 0.00 | 29 | 1007.6 |
| 20260830222524 | 40 | 288 | 6.4 | 14.5 | 0.00 | 0.00 | 0.00 | 29 | 1007.6 |
| 20260830222027 | 39 | 284 | 1.6 | 9.7 | 0.00 | 0.00 | 0.00 | 29 | 1007.7 |
| 20260830221550 | 39 | 24 | 3.2 | 9.7 | 0.00 | 0.00 | 0.00 | 29 | 1007.8 |
| 20260830221025 | 39 | 296 | 1.6 | 12.9 | 0.00 | 0.00 | 0.00 | 29 | 1007.9 |
| 20260830220524 | 40 | 336 | 4.8 | 12.9 | 0.00 | 0.00 | 0.00 | 29 | 1008.1 |
| 20260830220051 | 40 | 310 | 3.2 | 12.9 | 0.00 | 0.00 | 0.00 | 29 | 1008.1 |
| 20260830215524 | 40 | 202 | 3.2 | 11.3 | 0.00 | 0.00 | 0.00 | 28 | 1008.2 |
| 20260830215023 | 40 | 302 | 3.2 | 14.5 | 0.00 | 0.00 | 0.00 | 28 | 1008.3 |
| 20260830214547 | 40 | 159 | 4.8 | 16.1 | 0.00 | 0.00 | 0.00 | 28 | 1008.5 |
| 20260830214026 | 40 | 175 | 3.2 | 16.1 | 0.00 | 0.00 | 0.00 | 28 | 1008.6 |
| 20260830213526 | 40 | 340 | 3.2 | 16.1 | 0.00 | 0.00 | 0.00 | 28 | 1008.7 |
| 20260830213055 | 40 | 239 | 4.8 | 12.9 | 0.00 | 0.00 | 0.00 | 28 | 1008.9 |
| 20260830212524 | 40 | 292 | 4.8 | 12.9 | 0.00 | 0.00 | 0.00 | 29 | 1008.9 |
| 20260830212025 | 40 | 279 | 4.8 | 12.9 | 0.00 | 0.00 | 0.00 | 29 | 1009.0 |
| 20260830211552 | 40 | 5 | 1.6 | 14.5 | 0.00 | 0.00 | 0.00 | 29 | 1009.1 |
| 20260830211027 | 40 | 136 | 4.8 | 14.5 | 0.00 | 0.00 | 0.00 | 29 | 1009.2 |
| 20260830210525 | 40 | 135 | 3.2 | 12.9 | 0.00 | 0.00 | 0.00 | 29 | 1009.3 |
| 20260830210052 | 40 | 200 | 3.2 | 14.5 | 0.00 | 0.00 | 0.00 | 29 | 1009.5 |
| 20260830205524 | 40 | 269 | 6.4 | 14.5 | 0.00 | 0.00 | 0.00 | 29 | 1009.5 |
| 20260830205024 | 40 | 0 | 1.6 | 9.7 | 0.00 | 0.00 | 0.00 | 30 | 1009.5 |
| 20260830204555 | 40 | 91 | 3.2 | 9.7 | 0.00 | 0.00 | 0.00 | 29 | 1009.6 |
| 20260830204025 | 40 | 171 | 3.2 | 9.7 | 0.00 | 0.00 | 0.00 | 30 | 1009.7 |
| 20260830203524 | 39 | 164 | 1.6 | 11.3 | 0.00 | 0.00 | 0.00 | 31 | 1009.8 |
| 20260830203114 | 39 | 103 | 3.2 | 17.7 | 0.00 | 0.00 | 0.00 | 30 | 1009.9 |
| 20260830202528 | 39 | 171 | 4.8 | 17.7 | 0.00 | 0.00 | 0.00 | 30 | 1010.0 |
| 20260830202027 | 39 | 203 | 1.6 | 12.9 | 0.00 | 0.00 | 0.00 | 31 | 1010.1 |
| 20260830201550 | 38 | 217 | 3.2 | 12.9 | 0.00 | 0.00 | 0.00 | 32 | 1010.2 |
| 20260830201027 | 39 | 309 | 4.8 | 12.9 | 0.00 | 0.00 | 0.00 | 31 | 1010.3 |
| 20260830200531 | 38 | 265 | 1.6 | 11.3 | 0.00 | 0.00 | 0.00 | 33 | 1010.3 |
| 20260830200048 | 37 | 0 | 3.2 | 11.3 | 0.00 | 0.00 | 0.00 | 33 | 1010.4 |
| 20260830195527 | 38 | 15 | 1.6 | 11.3 | 0.00 | 0.00 | 0.00 | 33 | 1010.4 |
| 20260830195026 | 37 | 223 | 1.6 | 11.3 | 0.00 | 0.00 | 0.00 | 33 | 1010.6 |
| 20260830194606 | 38 | 38 | 1.6 | 11.3 | 0.00 | 0.00 | 0.00 | 33 | 1010.6 |
| 20260830194028 | 38 | 86 | 1.6 | 11.3 | 0.00 | 0.00 | 0.00 | 33 | 1010.6 |
| 20260830193525 | 38 | 49 | 3.2 | 11.3 | 0.00 | 0.00 | 0.00 | 33 | 1010.7 |
| 20260830193051 | 38 | 91 | 1.6 | 9.7 | 0.00 | 0.00 | 0.00 | 33 | 1010.7 |
| 20260830192527 | 37 | 122 | 1.6 | 16.1 | 0.00 | 0.00 | 0.00 | 33 | 1010.8 |
| 20260830192031 | 37 | 225 | 3.2 | 16.1 | 0.00 | 0.00 | 0.00 | 33 | 1011.0 |
| 20260830191601 | 37 | 333 | 4.8 | 14.5 | 0.00 | 0.00 | 0.00 | 33 | 1010.9 |
| 20260830191025 | 37 | 306 | 4.8 | 14.5 | 0.00 | 0.00 | 0.00 | 34 | 1011.2 |
| 20260830190527 | 37 | 188 | 3.2 | 12.9 | 0.00 | 0.00 | 0.00 | 34 | 1011.2 |
| 20260830190052 | 37 | 0 | 1.6 | 11.3 | 0.00 | 0.00 | 0.00 | 34 | 1011.4 |
| 20260830185529 | 37 | 91 | 3.2 | 11.3 | 0.00 | 0.00 | 0.00 | 35 | 1011.4 |
| 20260830185027 | 37 | 190 | 1.6 | 11.3 | 0.00 | 0.00 | 0.00 | 36 | 1011.4 |
| 20260830184551 | 36 | 235 | 1.6 | 14.5 | 0.00 | 0.00 | 0.00 | 36 | 1011.5 |
| 20260830184028 | 37 | 0 | 4.8 | 14.5 | 0.00 | 0.00 | 0.00 | 35 | 1011.6 |
| 20260830183527 | 37 | 128 | 3.2 | 14.5 | 0.00 | 0.00 | 0.00 | 34 | 1011.7 |
| 20260830183105 | 37 | 146 | 3.2 | 14.5 | 0.00 | 0.00 | 0.00 | 36 | 1011.8 |
| 20260830182525 | 37 | 186 | 3.2 | 12.9 | 0.00 | 0.00 | 0.00 | 36 | 1011.9 |
| 20260830182026 | 36 | 134 | 3.2 | 12.9 | 0.00 | 0.00 | 0.00 | 36 | 1011.9 |
| 20260830181557 | 36 | 333 | 1.6 | 14.5 | 0.00 | 0.00 | 0.00 | 35 | 1011.9 |
| 20260830181031 | 37 | 202 | 4.8 | 16.1 | 0.00 | 0.00 | 0.00 | 36 | 1012.1 |
| 20260830180527 | 37 | 174 | 4.8 | 16.1 | 0.00 | 0.00 | 0.00 | 35 | 1012.1 |
| 20260830180053 | 37 | 179 | 4.8 | 12.9 | 0.00 | 0.00 | 0.00 | 36 | 1012.2 |
| 20260830175528 | 36 | 127 | 3.2 | 11.3 | 0.00 | 0.00 | 0.00 | 37 | 1012.3 |
| 20260830175028 | 36 | 269 | 3.2 | 12.9 | 0.00 | 0.00 | 0.00 | 36 | 1012.3 |
| 20260830174551 | 36 | 137 | 6.4 | 12.9 | 0.00 | 0.00 | 0.00 | 36 | 1012.4 |
| 20260830174025 | 36 | 160 | 1.6 | 14.5 | 0.00 | 0.00 | 0.00 | 37 | 1012.4 |
| 20260830173527 | 36 | 0 | 1.6 | 14.5 | 0.00 | 0.00 | 0.00 | 37 | 1012.4 |
| 20260830173107 | 36 | 171 | 3.2 | 14.5 | 0.00 | 0.00 | 0.00 | 37 | 1012.4 |
| 20260830172523 | 36 | 178 | 4.8 | 14.5 | 0.00 | 0.00 | 0.00 | 38 | 1012.4 |
| 20260830172024 | 36 | 150 | 3.2 | 14.5 | 0.00 | 0.00 | 0.00 | 37 | 1012.4 |
| 20260830171550 | 35 | 192 | 4.8 | 14.5 | 0.00 | 0.00 | 0.00 | 38 | 1012.4 |
| 20260830171024 | 35 | 152 | 1.6 | 14.5 | 0.00 | 0.00 | 0.00 | 38 | 1012.3 |
| 20260830170525 | 35 | 153 | 6.4 | 14.5 | 0.00 | 0.00 | 0.00 | 39 | 1012.2 |